sensor_id;sensor_type;location;lat;lon;timestamp;temperature;humidity
45319;DHT22;31057;48.498;32.260;2023-04-03T00:01:35;6.80;99.90
45319;DHT22;31057;48.498;32.260;2023-04-03T00:03:40;6.80;99.90
45319;DHT22;31057;48.498;32.260;2023-04-03T00:05:45;6.80;99.90
45319;DHT22;31057;48.498;32.260;2023-04-03T00:07:47;6.80;99.90
45319;DHT22;31057;48.498;32.260;2023-04-03T00:09:51;6.80;99.90
45319;DHT22;31057;48.498;32.260;2023-04-03T00:11:53;6.90;99.90
45319;DHT22;31057;48.498;32.260;2023-04-03T00:13:55;6.80;99.90
45319;DHT22;31057;48.498;32.260;2023-04-03T00:15:57;6.80;99.90
45319;DHT22;31057;48.498;32.260;2023-04-03T00:17:58;6.80;99.90
45319;DHT22;31057;48.498;32.260;2023-04-03T00:20:01;6.80;99.90
45319;DHT22;31057;48.498;32.260;2023-04-03T00:22:03;6.80;99.90
45319;DHT22;31057;48.498;32.260;2023-04-03T00:24:05;6.80;99.90
45319;DHT22;31057;48.498;32.260;2023-04-03T00:26:08;6.80;99.90
45319;DHT22;31057;48.498;32.260;2023-04-03T00:28:09;6.80;99.90
45319;DHT22;31057;48.498;32.260;2023-04-03T00:30:15;6.80;99.90
45319;DHT22;31057;48.498;32.260;2023-04-03T00:32:17;6.80;99.90
45319;DHT22;31057;48.498;32.260;2023-04-03T00:34:19;6.90;99.90
45319;DHT22;31057;48.498;32.260;2023-04-03T00:36:21;6.90;99.90
45319;DHT22;31057;48.498;32.260;2023-04-03T00:38:23;6.90;99.90
45319;DHT22;31057;48.498;32.260;2023-04-03T00:40:27;6.80;99.90
45319;DHT22;31057;48.498;32.260;2023-04-03T00:42:29;6.90;99.90
45319;DHT22;31057;48.498;32.260;2023-04-03T00:46:36;6.90;99.90
45319;DHT22;31057;48.498;32.260;2023-04-03T00:48:41;6.90;99.90
45319;DHT22;31057;48.498;32.260;2023-04-03T00:50:44;6.90;99.90
45319;DHT22;31057;48.498;32.260;2023-04-03T00:52:47;6.90;99.90
45319;DHT22;31057;48.498;32.260;2023-04-03T00:54:52;6.90;99.90
45319;DHT22;31057;48.498;32.260;2023-04-03T00:56:57;7.10;99.90
45319;DHT22;31057;48.498;32.260;2023-04-03T00:59:08;6.90;99.90
45319;DHT22;31057;48.498;32.260;2023-04-03T01:01:15;6.90;99.90
45319;DHT22;31057;48.498;32.260;2023-04-03T01:03:17;6.90;99.90
45319;DHT22;31057;48.498;32.260;2023-04-03T01:05:20;6.90;99.90
45319;DHT22;31057;48.498;32.260;2023-04-03T01:07:26;6.90;99.90
45319;DHT22;31057;48.498;32.260;2023-04-03T01:09:29;6.90;99.90
45319;DHT22;31057;48.498;32.260;2023-04-03T01:11:31;6.90;99.90
45319;DHT22;31057;48.498;32.260;2023-04-03T01:13:34;6.90;99.90
45319;DHT22;31057;48.498;32.260;2023-04-03T01:15:36;6.90;99.90
45319;DHT22;31057;48.498;32.260;2023-04-03T01:17:46;6.90;99.90
45319;DHT22;31057;48.498;32.260;2023-04-03T01:19:52;7.00;99.90
45319;DHT22;31057;48.498;32.260;2023-04-03T01:22:19;6.90;99.90
45319;DHT22;31057;48.498;32.260;2023-04-03T01:24:36;6.90;99.90
45319;DHT22;31057;48.498;32.260;2023-04-03T01:26:38;6.90;99.90
45319;DHT22;31057;48.498;32.260;2023-04-03T01:28:41;6.90;99.90
45319;DHT22;31057;48.498;32.260;2023-04-03T01:30:50;6.90;99.90
45319;DHT22;31057;48.498;32.260;2023-04-03T01:32:52;6.90;99.90
45319;DHT22;31057;48.498;32.260;2023-04-03T01:34:54;6.90;99.90
45319;DHT22;31057;48.498;32.260;2023-04-03T01:36:56;6.90;99.90
45319;DHT22;31057;48.498;32.260;2023-04-03T01:38:59;6.90;99.90
45319;DHT22;31057;48.498;32.260;2023-04-03T01:41:01;6.90;99.90
45319;DHT22;31057;48.498;32.260;2023-04-03T01:43:03;6.90;99.90
45319;DHT22;31057;48.498;32.260;2023-04-03T01:45:05;7.00;99.90
45319;DHT22;31057;48.498;32.260;2023-04-03T01:47:08;6.90;99.90
45319;DHT22;31057;48.498;32.260;2023-04-03T01:49:10;6.90;99.90
45319;DHT22;31057;48.498;32.260;2023-04-03T01:51:12;6.90;99.90
45319;DHT22;31057;48.498;32.260;2023-04-03T01:53:14;6.90;99.90
45319;DHT22;31057;48.498;32.260;2023-04-03T01:55:16;6.90;99.90
45319;DHT22;31057;48.498;32.260;2023-04-03T01:57:18;6.90;99.90
45319;DHT22;31057;48.498;32.260;2023-04-03T01:59:20;7.00;99.90
45319;DHT22;31057;48.498;32.260;2023-04-03T02:01:22;7.00;99.90
45319;DHT22;31057;48.498;32.260;2023-04-03T02:03:24;6.90;99.90
45319;DHT22;31057;48.498;32.260;2023-04-03T02:05:26;6.90;99.90
45319;DHT22;31057;48.498;32.260;2023-04-03T02:07:28;7.00;99.90
45319;DHT22;31057;48.498;32.260;2023-04-03T02:09:30;6.90;99.90
45319;DHT22;31057;48.498;32.260;2023-04-03T02:11:32;6.90;99.90
45319;DHT22;31057;48.498;32.260;2023-04-03T02:13:34;6.90;99.90
45319;DHT22;31057;48.498;32.260;2023-04-03T02:15:39;6.90;99.90
45319;DHT22;31057;48.498;32.260;2023-04-03T02:17:41;6.90;99.90
45319;DHT22;31057;48.498;32.260;2023-04-03T02:19:43;6.90;99.90
45319;DHT22;31057;48.498;32.260;2023-04-03T02:21:45;6.90;99.90
45319;DHT22;31057;48.498;32.260;2023-04-03T02:23:47;6.90;99.90
45319;DHT22;31057;48.498;32.260;2023-04-03T02:25:49;6.90;99.90
45319;DHT22;31057;48.498;32.260;2023-04-03T02:27:51;6.90;99.90
45319;DHT22;31057;48.498;32.260;2023-04-03T02:29:53;6.90;99.90
45319;DHT22;31057;48.498;32.260;2023-04-03T02:31:55;6.90;99.90
45319;DHT22;31057;48.498;32.260;2023-04-03T02:33:57;6.90;99.90
45319;DHT22;31057;48.498;32.260;2023-04-03T02:35:59;6.90;99.90
45319;DHT22;31057;48.498;32.260;2023-04-03T02:38:01;6.90;99.90
45319;DHT22;31057;48.498;32.260;2023-04-03T02:40:04;6.90;99.90
45319;DHT22;31057;48.498;32.260;2023-04-03T02:42:07;6.90;99.90
45319;DHT22;31057;48.498;32.260;2023-04-03T02:44:12;6.90;99.90
45319;DHT22;31057;48.498;32.260;2023-04-03T02:46:14;6.90;99.90
45319;DHT22;31057;48.498;32.260;2023-04-03T02:48:17;6.90;99.90
45319;DHT22;31057;48.498;32.260;2023-04-03T02:50:19;6.90;99.90
45319;DHT22;31057;48.498;32.260;2023-04-03T02:52:21;6.90;99.90
45319;DHT22;31057;48.498;32.260;2023-04-03T02:54:23;6.90;99.90
45319;DHT22;31057;48.498;32.260;2023-04-03T02:56:29;6.90;99.90
45319;DHT22;31057;48.498;32.260;2023-04-03T02:58:31;6.90;99.90
45319;DHT22;31057;48.498;32.260;2023-04-03T03:00:33;6.90;99.90
45319;DHT22;31057;48.498;32.260;2023-04-03T03:02:35;6.90;99.90
45319;DHT22;31057;48.498;32.260;2023-04-03T03:04:37;7.00;99.90
45319;DHT22;31057;48.498;32.260;2023-04-03T03:06:39;6.90;99.90
45319;DHT22;31057;48.498;32.260;2023-04-03T03:08:44;6.90;99.90
45319;DHT22;31057;48.498;32.260;2023-04-03T03:10:46;7.00;99.90
45319;DHT22;31057;48.498;32.260;2023-04-03T03:12:48;6.90;99.90
45319;DHT22;31057;48.498;32.260;2023-04-03T03:14:50;6.90;99.90
45319;DHT22;31057;48.498;32.260;2023-04-03T03:16:52;6.90;99.90
45319;DHT22;31057;48.498;32.260;2023-04-03T03:18:54;6.90;99.90
45319;DHT22;31057;48.498;32.260;2023-04-03T03:21:00;7.00;99.90
45319;DHT22;31057;48.498;32.260;2023-04-03T03:23:02;6.90;99.90
45319;DHT22;31057;48.498;32.260;2023-04-03T03:25:04;7.00;99.90
45319;DHT22;31057;48.498;32.260;2023-04-03T03:27:06;7.00;99.90
45319;DHT22;31057;48.498;32.260;2023-04-03T03:29:08;7.00;99.90
45319;DHT22;31057;48.498;32.260;2023-04-03T03:31:10;7.00;99.90
45319;DHT22;31057;48.498;32.260;2023-04-03T03:33:12;7.10;99.90
45319;DHT22;31057;48.498;32.260;2023-04-03T03:35:14;7.00;99.90
45319;DHT22;31057;48.498;32.260;2023-04-03T03:37:16;7.00;99.90
45319;DHT22;31057;48.498;32.260;2023-04-03T03:39:18;7.10;99.90
45319;DHT22;31057;48.498;32.260;2023-04-03T03:41:20;7.00;99.90
45319;DHT22;31057;48.498;32.260;2023-04-03T03:43:22;7.10;99.90
45319;DHT22;31057;48.498;32.260;2023-04-03T03:45:24;7.10;99.90
45319;DHT22;31057;48.498;32.260;2023-04-03T03:47:26;7.10;99.90
45319;DHT22;31057;48.498;32.260;2023-04-03T03:49:28;7.10;99.90
45319;DHT22;31057;48.498;32.260;2023-04-03T03:51:30;7.10;99.90
45319;DHT22;31057;48.498;32.260;2023-04-03T03:53:32;7.10;99.90
45319;DHT22;31057;48.498;32.260;2023-04-03T03:55:34;7.20;99.90
45319;DHT22;31057;48.498;32.260;2023-04-03T03:57:36;7.10;99.90
45319;DHT22;31057;48.498;32.260;2023-04-03T03:59:38;7.10;99.90
45319;DHT22;31057;48.498;32.260;2023-04-03T04:01:43;7.20;99.90
45319;DHT22;31057;48.498;32.260;2023-04-03T04:03:45;7.20;99.90
45319;DHT22;31057;48.498;32.260;2023-04-03T04:05:47;7.20;99.90
45319;DHT22;31057;48.498;32.260;2023-04-03T04:07:49;7.10;99.90
45319;DHT22;31057;48.498;32.260;2023-04-03T04:09:51;7.20;99.90
45319;DHT22;31057;48.498;32.260;2023-04-03T04:11:52;7.20;99.90
45319;DHT22;31057;48.498;32.260;2023-04-03T04:13:54;7.20;99.90
45319;DHT22;31057;48.498;32.260;2023-04-03T04:15:56;7.20;99.90
45319;DHT22;31057;48.498;32.260;2023-04-03T04:17:58;7.20;99.90
45319;DHT22;31057;48.498;32.260;2023-04-03T04:20:00;7.20;99.90
45319;DHT22;31057;48.498;32.260;2023-04-03T04:22:02;7.30;99.90
45319;DHT22;31057;48.498;32.260;2023-04-03T04:24:05;7.30;99.90
45319;DHT22;31057;48.498;32.260;2023-04-03T04:26:07;7.40;99.90
45319;DHT22;31057;48.498;32.260;2023-04-03T04:28:09;7.30;99.90
45319;DHT22;31057;48.498;32.260;2023-04-03T04:30:11;7.40;99.90
45319;DHT22;31057;48.498;32.260;2023-04-03T04:32:13;7.30;99.90
45319;DHT22;31057;48.498;32.260;2023-04-03T04:34:15;7.40;99.90
45319;DHT22;31057;48.498;32.260;2023-04-03T04:36:17;7.40;99.90
45319;DHT22;31057;48.498;32.260;2023-04-03T04:38:19;7.30;99.90
45319;DHT22;31057;48.498;32.260;2023-04-03T04:40:21;7.30;99.90
45319;DHT22;31057;48.498;32.260;2023-04-03T04:42:23;7.40;99.90
45319;DHT22;31057;48.498;32.260;2023-04-03T04:44:25;7.50;99.90
45319;DHT22;31057;48.498;32.260;2023-04-03T04:46:27;7.40;99.90
45319;DHT22;31057;48.498;32.260;2023-04-03T04:48:29;7.50;99.90
45319;DHT22;31057;48.498;32.260;2023-04-03T04:50:33;7.50;99.90
45319;DHT22;31057;48.498;32.260;2023-04-03T04:52:35;7.40;99.90
45319;DHT22;31057;48.498;32.260;2023-04-03T04:54:37;7.40;99.90
45319;DHT22;31057;48.498;32.260;2023-04-03T04:56:39;7.50;99.90
45319;DHT22;31057;48.498;32.260;2023-04-03T04:58:41;7.40;99.90
45319;DHT22;31057;48.498;32.260;2023-04-03T05:00:42;7.40;99.90
45319;DHT22;31057;48.498;32.260;2023-04-03T05:02:44;7.40;99.90
45319;DHT22;31057;48.498;32.260;2023-04-03T05:04:46;7.40;99.90
45319;DHT22;31057;48.498;32.260;2023-04-03T05:06:48;7.40;99.90
45319;DHT22;31057;48.498;32.260;2023-04-03T05:08:50;7.40;99.90
45319;DHT22;31057;48.498;32.260;2023-04-03T05:10:52;7.40;99.90
45319;DHT22;31057;48.498;32.260;2023-04-03T05:12:57;7.40;99.90
45319;DHT22;31057;48.498;32.260;2023-04-03T05:14:59;7.50;99.90
45319;DHT22;31057;48.498;32.260;2023-04-03T05:17:01;7.50;99.90
45319;DHT22;31057;48.498;32.260;2023-04-03T05:19:03;7.50;99.90
45319;DHT22;31057;48.498;32.260;2023-04-03T05:21:05;7.50;99.90
45319;DHT22;31057;48.498;32.260;2023-04-03T05:23:07;7.50;99.90
45319;DHT22;31057;48.498;32.260;2023-04-03T05:25:09;7.60;99.90
45319;DHT22;31057;48.498;32.260;2023-04-03T05:27:11;7.60;99.90
45319;DHT22;31057;48.498;32.260;2023-04-03T05:29:12;7.70;99.90
45319;DHT22;31057;48.498;32.260;2023-04-03T05:31:14;7.60;99.90
45319;DHT22;31057;48.498;32.260;2023-04-03T05:33:16;7.70;99.90
45319;DHT22;31057;48.498;32.260;2023-04-03T05:35:19;7.70;99.90
45319;DHT22;31057;48.498;32.260;2023-04-03T05:37:21;7.60;99.90
45319;DHT22;31057;48.498;32.260;2023-04-03T05:39:23;7.60;99.90
45319;DHT22;31057;48.498;32.260;2023-04-03T05:41:26;7.60;99.90
45319;DHT22;31057;48.498;32.260;2023-04-03T05:43:28;7.60;99.90
45319;DHT22;31057;48.498;32.260;2023-04-03T05:45:30;7.50;99.90
45319;DHT22;31057;48.498;32.260;2023-04-03T05:47:32;7.60;99.90
45319;DHT22;31057;48.498;32.260;2023-04-03T05:49:35;7.60;99.90
45319;DHT22;31057;48.498;32.260;2023-04-03T05:51:42;7.70;99.90
45319;DHT22;31057;48.498;32.260;2023-04-03T05:53:46;7.60;99.90
45319;DHT22;31057;48.498;32.260;2023-04-03T05:55:49;7.50;99.90
45319;DHT22;31057;48.498;32.260;2023-04-03T05:57:51;7.50;99.90
45319;DHT22;31057;48.498;32.260;2023-04-03T05:59:53;7.60;99.90
45319;DHT22;31057;48.498;32.260;2023-04-03T06:01:55;7.60;99.90
45319;DHT22;31057;48.498;32.260;2023-04-03T06:03:57;7.50;99.90
45319;DHT22;31057;48.498;32.260;2023-04-03T06:06:03;7.70;99.90
45319;DHT22;31057;48.498;32.260;2023-04-03T06:08:05;7.60;99.90
45319;DHT22;31057;48.498;32.260;2023-04-03T06:10:07;7.60;99.90
45319;DHT22;31057;48.498;32.260;2023-04-03T06:12:13;7.90;99.90
45319;DHT22;31057;48.498;32.260;2023-04-03T06:14:15;7.80;99.90
45319;DHT22;31057;48.498;32.260;2023-04-03T06:16:17;7.90;99.90
45319;DHT22;31057;48.498;32.260;2023-04-03T06:18:19;7.90;99.90
45319;DHT22;31057;48.498;32.260;2023-04-03T06:20:21;8.10;99.90
45319;DHT22;31057;48.498;32.260;2023-04-03T06:22:23;8.10;99.90
45319;DHT22;31057;48.498;32.260;2023-04-03T06:24:27;8.00;99.90
45319;DHT22;31057;48.498;32.260;2023-04-03T06:26:29;8.10;99.90
45319;DHT22;31057;48.498;32.260;2023-04-03T06:28:31;8.10;99.90
45319;DHT22;31057;48.498;32.260;2023-04-03T06:30:33;8.00;99.90
45319;DHT22;31057;48.498;32.260;2023-04-03T06:32:35;8.00;99.90
45319;DHT22;31057;48.498;32.260;2023-04-03T06:34:37;8.00;99.90
45319;DHT22;31057;48.498;32.260;2023-04-03T06:36:39;8.00;99.90
45319;DHT22;31057;48.498;32.260;2023-04-03T06:38:41;8.00;99.90
45319;DHT22;31057;48.498;32.260;2023-04-03T06:40:43;8.00;99.90
45319;DHT22;31057;48.498;32.260;2023-04-03T06:42:45;8.10;99.90
45319;DHT22;31057;48.498;32.260;2023-04-03T06:44:47;8.10;99.90
45319;DHT22;31057;48.498;32.260;2023-04-03T06:46:49;8.30;99.90
45319;DHT22;31057;48.498;32.260;2023-04-03T06:48:51;8.40;99.90
45319;DHT22;31057;48.498;32.260;2023-04-03T06:50:53;8.40;99.90
45319;DHT22;31057;48.498;32.260;2023-04-03T06:52:55;8.50;99.90
45319;DHT22;31057;48.498;32.260;2023-04-03T06:54:57;8.60;99.90
45319;DHT22;31057;48.498;32.260;2023-04-03T06:57:01;8.80;99.90
45319;DHT22;31057;48.498;32.260;2023-04-03T06:59:03;8.70;99.90
45319;DHT22;31057;48.498;32.260;2023-04-03T07:01:05;8.70;99.90
45319;DHT22;31057;48.498;32.260;2023-04-03T07:03:07;8.60;99.90
45319;DHT22;31057;48.498;32.260;2023-04-03T07:05:09;8.60;99.90
45319;DHT22;31057;48.498;32.260;2023-04-03T07:07:11;8.50;99.90
45319;DHT22;31057;48.498;32.260;2023-04-03T07:09:14;8.50;99.90
45319;DHT22;31057;48.498;32.260;2023-04-03T07:11:16;8.60;99.90
45319;DHT22;31057;48.498;32.260;2023-04-03T07:13:18;8.30;99.90
45319;DHT22;31057;48.498;32.260;2023-04-03T07:15:20;8.50;99.90
45319;DHT22;31057;48.498;32.260;2023-04-03T07:17:22;8.40;99.90
45319;DHT22;31057;48.498;32.260;2023-04-03T07:19:24;8.50;99.90
45319;DHT22;31057;48.498;32.260;2023-04-03T07:21:28;8.30;99.90
45319;DHT22;31057;48.498;32.260;2023-04-03T07:23:31;8.30;99.90
45319;DHT22;31057;48.498;32.260;2023-04-03T07:25:32;8.30;99.90
45319;DHT22;31057;48.498;32.260;2023-04-03T07:27:35;8.20;99.90
45319;DHT22;31057;48.498;32.260;2023-04-03T07:29:37;8.20;99.90
45319;DHT22;31057;48.498;32.260;2023-04-03T07:31:39;8.20;99.90
45319;DHT22;31057;48.498;32.260;2023-04-03T07:33:44;8.20;99.90
45319;DHT22;31057;48.498;32.260;2023-04-03T07:35:46;8.30;99.90
45319;DHT22;31057;48.498;32.260;2023-04-03T07:37:48;8.30;99.90
45319;DHT22;31057;48.498;32.260;2023-04-03T07:39:50;8.30;99.90
45319;DHT22;31057;48.498;32.260;2023-04-03T07:41:52;8.40;99.90
45319;DHT22;31057;48.498;32.260;2023-04-03T07:43:54;8.50;99.90
45319;DHT22;31057;48.498;32.260;2023-04-03T07:45:58;8.50;99.90
45319;DHT22;31057;48.498;32.260;2023-04-03T07:48:01;8.50;99.90
45319;DHT22;31057;48.498;32.260;2023-04-03T07:50:03;8.50;99.90
45319;DHT22;31057;48.498;32.260;2023-04-03T07:52:06;8.60;99.90
45319;DHT22;31057;48.498;32.260;2023-04-03T07:54:10;8.70;99.90
45319;DHT22;31057;48.498;32.260;2023-04-03T07:56:12;9.00;99.90
45319;DHT22;31057;48.498;32.260;2023-04-03T07:58:17;9.00;99.90
45319;DHT22;31057;48.498;32.260;2023-04-03T08:00:19;9.00;99.90
45319;DHT22;31057;48.498;32.260;2023-04-03T08:02:21;9.10;99.90
45319;DHT22;31057;48.498;32.260;2023-04-03T08:04:23;9.20;99.90
45319;DHT22;31057;48.498;32.260;2023-04-03T08:06:26;9.30;99.90
45319;DHT22;31057;48.498;32.260;2023-04-03T08:08:46;9.30;99.90
45319;DHT22;31057;48.498;32.260;2023-04-03T08:10:50;9.10;99.90
45319;DHT22;31057;48.498;32.260;2023-04-03T08:12:52;9.30;99.90
45319;DHT22;31057;48.498;32.260;2023-04-03T08:14:54;9.30;99.90
45319;DHT22;31057;48.498;32.260;2023-04-03T08:16:56;9.10;99.90
45319;DHT22;31057;48.498;32.260;2023-04-03T08:18:58;9.10;99.90
45319;DHT22;31057;48.498;32.260;2023-04-03T08:21:00;9.10;99.90
45319;DHT22;31057;48.498;32.260;2023-04-03T08:23:02;9.20;99.90
45319;DHT22;31057;48.498;32.260;2023-04-03T08:25:04;9.20;99.90
45319;DHT22;31057;48.498;32.260;2023-04-03T08:27:06;9.30;99.90
45319;DHT22;31057;48.498;32.260;2023-04-03T08:29:08;9.60;99.90
45319;DHT22;31057;48.498;32.260;2023-04-03T08:31:13;9.80;99.90
45319;DHT22;31057;48.498;32.260;2023-04-03T08:33:16;9.60;99.90
45319;DHT22;31057;48.498;32.260;2023-04-03T08:35:18;9.40;99.90
45319;DHT22;31057;48.498;32.260;2023-04-03T08:37:22;9.50;99.90
45319;DHT22;31057;48.498;32.260;2023-04-03T08:39:23;9.30;99.90
45319;DHT22;31057;48.498;32.260;2023-04-03T08:41:34;9.30;99.90
45319;DHT22;31057;48.498;32.260;2023-04-03T08:43:56;9.50;99.90
45319;DHT22;31057;48.498;32.260;2023-04-03T08:46:01;9.50;99.90
45319;DHT22;31057;48.498;32.260;2023-04-03T08:48:41;9.60;99.90
45319;DHT22;31057;48.498;32.260;2023-04-03T08:50:46;9.70;99.90
45319;DHT22;31057;48.498;32.260;2023-04-03T08:52:52;9.50;99.90
45319;DHT22;31057;48.498;32.260;2023-04-03T08:54:58;9.80;99.90
45319;DHT22;31057;48.498;32.260;2023-04-03T08:57:05;9.60;99.90
45319;DHT22;31057;48.498;32.260;2023-04-03T08:59:14;9.60;99.90
45319;DHT22;31057;48.498;32.260;2023-04-03T09:01:29;9.90;99.90
45319;DHT22;31057;48.498;32.260;2023-04-03T09:03:35;9.90;99.90
45319;DHT22;31057;48.498;32.260;2023-04-03T09:07:55;9.50;99.90
45319;DHT22;31057;48.498;32.260;2023-04-03T09:10:00;9.70;99.90
45319;DHT22;31057;48.498;32.260;2023-04-03T09:14:26;9.70;99.90
45319;DHT22;31057;48.498;32.260;2023-04-03T09:16:45;9.60;99.90
45319;DHT22;31057;48.498;32.260;2023-04-03T09:19:02;9.50;99.90
45319;DHT22;31057;48.498;32.260;2023-04-03T09:21:32;9.50;99.90
45319;DHT22;31057;48.498;32.260;2023-04-03T09:23:44;9.70;99.90
45319;DHT22;31057;48.498;32.260;2023-04-03T09:25:47;9.40;99.90
45319;DHT22;31057;48.498;32.260;2023-04-03T09:27:50;9.40;99.90
45319;DHT22;31057;48.498;32.260;2023-04-03T09:29:56;9.50;99.90
45319;DHT22;31057;48.498;32.260;2023-04-03T09:32:21;9.60;99.90
45319;DHT22;31057;48.498;32.260;2023-04-03T09:34:36;9.60;99.90
45319;DHT22;31057;48.498;32.260;2023-04-03T09:38:41;9.90;99.90
45319;DHT22;31057;48.498;32.260;2023-04-03T09:40:45;10.00;99.90
45319;DHT22;31057;48.498;32.260;2023-04-03T09:42:48;10.00;99.90
45319;DHT22;31057;48.498;32.260;2023-04-03T09:45:04;10.20;99.90
45319;DHT22;31057;48.498;32.260;2023-04-03T09:47:25;10.10;99.90
45319;DHT22;31057;48.498;32.260;2023-04-03T09:49:27;10.00;99.90
45319;DHT22;31057;48.498;32.260;2023-04-03T09:51:30;10.10;99.90
45319;DHT22;31057;48.498;32.260;2023-04-03T09:53:40;9.80;99.90
45319;DHT22;31057;48.498;32.260;2023-04-03T09:55:43;9.80;99.90
45319;DHT22;31057;48.498;32.260;2023-04-03T09:57:46;9.70;99.90
45319;DHT22;31057;48.498;32.260;2023-04-03T09:59:59;9.70;99.90
45319;DHT22;31057;48.498;32.260;2023-04-03T10:02:32;9.80;99.90
45319;DHT22;31057;48.498;32.260;2023-04-03T10:04:39;10.00;99.90
45319;DHT22;31057;48.498;32.260;2023-04-03T10:06:50;10.20;99.90
45319;DHT22;31057;48.498;32.260;2023-04-03T10:11:22;10.20;99.90
45319;DHT22;31057;48.498;32.260;2023-04-03T10:13:25;10.10;99.90
45319;DHT22;31057;48.498;32.260;2023-04-03T10:15:27;9.90;99.90
45319;DHT22;31057;48.498;32.260;2023-04-03T10:19:55;9.90;99.90
45319;DHT22;31057;48.498;32.260;2023-04-03T10:22:04;10.00;99.90
45319;DHT22;31057;48.498;32.260;2023-04-03T10:24:19;10.10;99.90
45319;DHT22;31057;48.498;32.260;2023-04-03T10:26:32;10.00;99.90
45319;DHT22;31057;48.498;32.260;2023-04-03T10:29:02;10.00;99.90
45319;DHT22;31057;48.498;32.260;2023-04-03T10:35:49;10.00;99.90
45319;DHT22;31057;48.498;32.260;2023-04-03T10:38:04;10.10;99.90
45319;DHT22;31057;48.498;32.260;2023-04-03T10:40:19;10.10;99.90
45319;DHT22;31057;48.498;32.260;2023-04-03T10:42:31;10.10;99.90
45319;DHT22;31057;48.498;32.260;2023-04-03T10:51:45;10.20;99.90
45319;DHT22;31057;48.498;32.260;2023-04-03T10:54:05;10.20;99.90
45319;DHT22;31057;48.498;32.260;2023-04-03T10:58:52;10.30;99.90
45319;DHT22;31057;48.498;32.260;2023-04-03T11:01:02;10.20;99.90
45319;DHT22;31057;48.498;32.260;2023-04-03T11:03:27;10.10;99.90
45319;DHT22;31057;48.498;32.260;2023-04-03T11:05:37;10.10;99.90
45319;DHT22;31057;48.498;32.260;2023-04-03T11:07:46;10.00;99.90
45319;DHT22;31057;48.498;32.260;2023-04-03T11:09:53;9.90;99.90
45319;DHT22;31057;48.498;32.260;2023-04-03T11:12:09;10.00;99.90
45319;DHT22;31057;48.498;32.260;2023-04-03T11:14:35;9.90;99.90
45319;DHT22;31057;48.498;32.260;2023-04-03T11:16:42;9.90;99.90
45319;DHT22;31057;48.498;32.260;2023-04-03T11:19:01;9.90;99.90
45319;DHT22;31057;48.498;32.260;2023-04-03T11:21:19;9.70;99.90
45319;DHT22;31057;48.498;32.260;2023-04-03T11:23:28;9.90;99.90
45319;DHT22;31057;48.498;32.260;2023-04-03T11:25:43;10.00;99.90
45319;DHT22;31057;48.498;32.260;2023-04-03T11:28:05;10.10;99.90
45319;DHT22;31057;48.498;32.260;2023-04-03T11:30:30;10.10;99.90
45319;DHT22;31057;48.498;32.260;2023-04-03T11:34:53;10.30;99.90
45319;DHT22;31057;48.498;32.260;2023-04-03T11:36:59;10.20;99.90
45319;DHT22;31057;48.498;32.260;2023-04-03T11:39:24;10.10;99.90
45319;DHT22;31057;48.498;32.260;2023-04-03T11:41:31;10.00;99.90
45319;DHT22;31057;48.498;32.260;2023-04-03T11:43:37;10.10;99.90
45319;DHT22;31057;48.498;32.260;2023-04-03T11:48:00;10.30;99.90
45319;DHT22;31057;48.498;32.260;2023-04-03T11:50:40;10.30;99.90
45319;DHT22;31057;48.498;32.260;2023-04-03T11:54:47;10.30;99.90
45319;DHT22;31057;48.498;32.260;2023-04-03T11:56:49;10.20;99.90
45319;DHT22;31057;48.498;32.260;2023-04-03T11:59:21;10.20;99.90
45319;DHT22;31057;48.498;32.260;2023-04-03T12:01:49;10.20;99.90
45319;DHT22;31057;48.498;32.260;2023-04-03T12:10:26;10.40;99.90
45319;DHT22;31057;48.498;32.260;2023-04-03T12:12:36;10.50;99.90
45319;DHT22;31057;48.498;32.260;2023-04-03T12:14:39;10.40;99.90
45319;DHT22;31057;48.498;32.260;2023-04-03T12:16:42;10.40;99.90
45319;DHT22;31057;48.498;32.260;2023-04-03T12:28:05;10.10;99.90
45319;DHT22;31057;48.498;32.260;2023-04-03T12:30:22;10.00;99.90
45319;DHT22;31057;48.498;32.260;2023-04-03T12:39:56;9.70;99.90
45319;DHT22;31057;48.498;32.260;2023-04-03T12:42:22;9.60;99.90
45319;DHT22;31057;48.498;32.260;2023-04-03T12:44:40;9.70;99.90
45319;DHT22;31057;48.498;32.260;2023-04-03T12:46:48;9.80;99.90
45319;DHT22;31057;48.498;32.260;2023-04-03T12:48:53;9.70;99.90
45319;DHT22;31057;48.498;32.260;2023-04-03T12:50:58;9.80;99.90
45319;DHT22;31057;48.498;32.260;2023-04-03T12:53:51;9.80;99.90
45319;DHT22;31057;48.498;32.260;2023-04-03T12:55:27;9.80;99.90
45319;DHT22;31057;48.498;32.260;2023-04-03T12:57:30;9.80;99.90
45319;DHT22;31057;48.498;32.260;2023-04-03T12:59:32;9.70;99.90
45319;DHT22;31057;48.498;32.260;2023-04-03T13:01:34;9.70;99.90
45319;DHT22;31057;48.498;32.260;2023-04-03T13:03:39;9.70;99.90
45319;DHT22;31057;48.498;32.260;2023-04-03T13:05:48;9.60;99.90
45319;DHT22;31057;48.498;32.260;2023-04-03T13:08:17;9.60;99.90
45319;DHT22;31057;48.498;32.260;2023-04-03T13:10:21;9.60;99.90
45319;DHT22;31057;48.498;32.260;2023-04-03T13:12:24;9.60;99.90
45319;DHT22;31057;48.498;32.260;2023-04-03T13:14:27;9.60;99.90
45319;DHT22;31057;48.498;32.260;2023-04-03T13:16:31;9.60;99.90
45319;DHT22;31057;48.498;32.260;2023-04-03T13:18:36;9.60;99.90
45319;DHT22;31057;48.498;32.260;2023-04-03T13:20:38;9.60;99.90
45319;DHT22;31057;48.498;32.260;2023-04-03T13:22:56;9.60;99.90
45319;DHT22;31057;48.498;32.260;2023-04-03T13:25:25;9.60;99.90
45319;DHT22;31057;48.498;32.260;2023-04-03T13:27:30;9.60;99.90
45319;DHT22;31057;48.498;32.260;2023-04-03T13:29:35;9.70;99.90
45319;DHT22;31057;48.498;32.260;2023-04-03T13:31:39;9.70;99.90
45319;DHT22;31057;48.498;32.260;2023-04-03T13:33:52;9.60;99.90
45319;DHT22;31057;48.498;32.260;2023-04-03T13:36:16;9.60;99.90
45319;DHT22;31057;48.498;32.260;2023-04-03T13:40:21;9.70;99.90
45319;DHT22;31057;48.498;32.260;2023-04-03T13:42:27;9.70;99.90
45319;DHT22;31057;48.498;32.260;2023-04-03T13:44:36;9.60;99.90
45319;DHT22;31057;48.498;32.260;2023-04-03T13:46:41;9.60;99.90
45319;DHT22;31057;48.498;32.260;2023-04-03T13:48:48;9.60;99.90
45319;DHT22;31057;48.498;32.260;2023-04-03T13:51:05;9.50;99.90
45319;DHT22;31057;48.498;32.260;2023-04-03T13:53:13;9.50;99.90
45319;DHT22;31057;48.498;32.260;2023-04-03T13:57:27;9.50;99.90
45319;DHT22;31057;48.498;32.260;2023-04-03T13:59:32;9.50;99.90
45319;DHT22;31057;48.498;32.260;2023-04-03T14:03:59;9.50;99.90
45319;DHT22;31057;48.498;32.260;2023-04-03T14:06:01;9.50;99.90
45319;DHT22;31057;48.498;32.260;2023-04-03T14:08:03;9.60;99.90
45319;DHT22;31057;48.498;32.260;2023-04-03T14:10:05;9.50;99.90
45319;DHT22;31057;48.498;32.260;2023-04-03T14:12:27;9.50;99.90
45319;DHT22;31057;48.498;32.260;2023-04-03T14:14:35;9.50;99.90
45319;DHT22;31057;48.498;32.260;2023-04-03T14:16:41;9.40;99.90